Time;durP1;ratioP1;P1;durP2;ratioP2;P2;SDS_P1;SDS_P2;PMS_P1;PMS_P2;Temp;Humidity;BMP_temperature;BMP_pressure;BME280_temperature;BME280_humidity;BME280_pressure;Samples;Min_cycle;Max_cycle;Signal;HPM_P1;HPM_P2
2022/12/08 00:00:22;;;;;;;7.28;5.57;;;5.80;99.90;;;;;;5027871;28;20049;-72
2022/12/08 00:02:48;;;;;;;8.70;5.50;;;5.90;99.90;;;;;;5011525;28;20474;-72
2022/12/08 00:10:43;;;;;;;8.40;5.80;;;5.90;99.90;;;;;;5012651;28;20037;-72
2022/12/08 00:13:09;;;;;;;9.57;5.82;;;5.90;99.90;;;;;;5011592;28;20336;-72
2022/12/08 00:15:35;;;;;;;10.90;6.43;;;5.90;99.90;;;;;;5012463;28;20030;-72
2022/12/08 00:18:01;;;;;;;7.50;5.60;;;5.90;99.90;;;;;;4996341;28;20037;-72
2022/12/08 00:20:26;;;;;;;9.93;6.55;;;5.90;99.90;;;;;;5016269;28;20038;-73
2022/12/08 00:22:52;;;;;;;10.25;6.47;;;5.90;99.90;;;;;;5015020;28;20065;-72
2022/12/08 00:25:17;;;;;;;9.70;6.40;;;5.90;99.90;;;;;;5016170;28;20049;-72
2022/12/08 00:27:43;;;;;;;8.80;6.72;;;5.90;99.90;;;;;;5015878;28;20463;-72
2022/12/08 00:30:09;;;;;;;9.07;6.65;;;5.90;99.90;;;;;;5015439;28;20125;-72
2022/12/08 00:32:36;;;;;;;9.45;6.32;;;5.90;99.90;;;;;;5016075;28;20490;-72
2022/12/08 00:35:02;;;;;;;9.32;5.75;;;5.90;99.90;;;;;;5015970;28;20037;-72
2022/12/08 00:37:28;;;;;;;7.68;6.03;;;5.90;99.90;;;;;;5014523;28;20030;-72
2022/12/08 00:39:53;;;;;;;8.98;6.53;;;5.90;99.90;;;;;;5015112;28;20402;-72
2022/12/08 00:42:19;;;;;;;8.73;6.28;;;5.90;99.90;;;;;;5014378;28;20030;-72
2022/12/08 00:44:45;;;;;;;8.27;6.22;;;5.90;99.90;;;;;;5015804;28;20037;-72
2022/12/08 00:47:12;;;;;;;8.98;5.55;;;5.80;99.90;;;;;;5014288;28;20022;-71
2022/12/08 00:49:37;;;;;;;11.38;6.35;;;5.90;99.90;;;;;;5015665;28;20410;-72
2022/12/08 00:52:03;;;;;;;12.90;5.93;;;5.90;99.90;;;;;;5015800;28;20026;-72
2022/12/08 00:54:29;;;;;;;6.82;4.97;;;5.80;99.90;;;;;;5031587;28;20478;-72
2022/12/08 00:56:55;;;;;;;8.60;4.95;;;5.80;99.90;;;;;;5014511;28;20033;-72
2022/12/08 00:59:21;;;;;;;9.73;4.75;;;5.80;99.90;;;;;;5014284;28;20120;-72
2022/12/08 01:01:47;;;;;;;8.65;5.40;;;5.80;99.90;;;;;;4997979;28;20398;-72
2022/12/08 01:04:15;;;;;;;7.47;4.97;;;5.80;99.90;;;;;;5014565;28;20033;-72
2022/12/08 01:06:42;;;;;;;7.63;4.65;;;5.90;99.90;;;;;;5015637;28;20033;-72
2022/12/08 01:09:08;;;;;;;7.13;4.57;;;5.90;99.90;;;;;;5013938;28;20125;-72
2022/12/08 01:11:35;;;;;;;6.93;4.38;;;6.00;99.90;;;;;;5016123;28;20092;-72
2022/12/08 01:14:01;;;;;;;7.20;4.60;;;6.00;99.90;;;;;;5014183;28;20129;-72
2022/12/08 01:16:30;;;;;;;9.45;4.90;;;6.00;99.90;;;;;;5014239;28;20065;-72
2022/12/08 01:18:58;;;;;;;7.07;3.90;;;6.10;99.90;;;;;;5013739;28;20037;-73
2022/12/08 01:21:24;;;;;;;6.47;3.78;;;6.00;99.90;;;;;;5013942;28;20462;-73
2022/12/08 01:23:50;;;;;;;7.63;3.67;;;6.00;99.90;;;;;;5015804;28;20038;-73
2022/12/08 01:26:18;;;;;;;5.75;3.72;;;5.90;99.90;;;;;;5015364;28;20033;-72
2022/12/08 01:28:44;;;;;;;6.20;3.67;;;6.00;99.90;;;;;;5019620;28;20026;-72
2022/12/08 01:31:12;;;;;;;7.80;3.97;;;6.00;99.90;;;;;;5022717;28;20034;-73
2022/12/08 01:33:38;;;;;;;6.93;4.15;;;6.10;99.90;;;;;;5023309;28;20086;-73
2022/12/08 01:36:05;;;;;;;8.05;4.65;;;6.10;99.90;;;;;;5016570;28;20068;-73
2022/12/08 01:38:31;;;;;;;8.57;5.53;;;6.10;99.90;;;;;;5015562;28;20057;-73
2022/12/08 01:40:57;;;;;;;7.20;5.70;;;6.00;99.90;;;;;;5015313;28;20057;-73
2022/12/08 01:43:22;;;;;;;10.48;6.35;;;6.00;99.90;;;;;;5013865;28;20399;-73
2022/12/08 01:45:48;;;;;;;10.93;6.43;;;6.10;99.90;;;;;;5013530;28;20026;-73
2022/12/08 01:48:23;;;;;;;11.27;7.20;;;6.10;99.90;;;;;;4997941;28;20117;-73
2022/12/08 01:50:50;;;;;;;12.93;7.93;;;6.10;99.90;;;;;;5014364;28;20061;-73
2022/12/08 01:53:27;;;;;;;11.60;8.30;;;6.10;99.90;;;;;;5014942;28;20090;-73
2022/12/08 01:55:57;;;;;;;10.98;8.18;;;6.10;99.90;;;;;;5014060;28;20061;-73
2022/12/08 01:58:30;;;;;;;10.20;8.27;;;6.10;99.90;;;;;;5015474;28;20022;-73
2022/12/08 02:00:56;;;;;;;11.48;8.77;;;6.10;99.90;;;;;;5017192;28;20040;-73
2022/12/08 02:03:27;;;;;;;11.25;9.02;;;6.10;99.90;;;;;;5033624;28;20135;-73
2022/12/08 02:05:52;;;;;;;12.80;8.95;;;6.00;99.90;;;;;;5034721;28;20171;-72
2022/12/08 02:08:19;;;;;;;10.57;8.93;;;6.00;99.90;;;;;;5033422;28;20156;-72
2022/12/08 02:10:46;;;;;;;12.00;9.20;;;6.00;99.90;;;;;;5034084;28;20535;-72
2022/12/08 02:13:14;;;;;;;14.80;9.70;;;6.00;99.90;;;;;;5033903;28;20025;-73
2022/12/08 02:16:01;;;;;;;11.60;9.02;;;6.00;99.90;;;;;;5017137;28;20040;-73
2022/12/08 02:18:36;;;;;;;13.10;9.55;;;6.00;99.90;;;;;;5034107;28;20022;-73
2022/12/08 02:21:26;;;;;;;14.32;9.88;;;6.00;99.90;;;;;;5033966;28;20032;-72
2022/12/08 02:24:03;;;;;;;12.68;9.38;;;6.00;99.90;;;;;;5033966;28;20033;-73
2022/12/08 02:27:03;;;;;;;13.20;9.55;;;5.90;99.90;;;;;;5032970;28;20498;-73
2022/12/08 02:29:47;;;;;;;16.23;10.25;;;5.90;99.90;;;;;;5033683;28;20033;-73
2022/12/08 02:32:33;;;;;;;16.85;10.27;;;5.90;99.90;;;;;;5034148;28;20036;-73
2022/12/08 02:35:06;;;;;;;16.05;9.77;;;5.90;99.90;;;;;;5033276;28;20120;-73
2022/12/08 02:37:40;;;;;;;12.52;9.50;;;5.90;99.90;;;;;;5016028;28;20116;-73
2022/12/08 02:40:23;;;;;;;17.48;10.77;;;5.80;99.90;;;;;;5033342;28;20036;-72
2022/12/08 02:43:00;;;;;;;13.93;9.95;;;5.80;99.90;;;;;;5034071;28;20048;-72
2022/12/08 02:45:42;;;;;;;13.70;9.80;;;5.80;99.90;;;;;;5033799;28;20028;-73
2022/12/08 02:48:09;;;;;;;14.63;10.23;;;5.80;99.90;;;;;;5033551;28;20021;-73
2022/12/08 02:50:34;;;;;;;13.25;9.80;;;5.70;99.90;;;;;;5016623;28;20084;-72
2022/12/08 02:53:01;;;;;;;13.05;10.40;;;5.70;99.90;;;;;;5033763;28;20486;-72
2022/12/08 02:56:26;;;;;;;13.27;9.75;;;5.80;99.90;;;;;;5033869;28;20025;-73
2022/12/08 02:59:13;;;;;;;13.40;10.07;;;5.80;99.90;;;;;;5019946;28;20430;-72
2022/12/08 03:02:29;;;;;;;15.43;11.15;;;5.80;99.90;;;;;;5015605;28;20033;-73
2022/12/08 03:05:16;;;;;;;15.48;10.48;;;5.80;99.90;;;;;;5015493;28;20038;-73
2022/12/08 03:08:00;;;;;;;15.13;11.70;;;5.80;99.90;;;;;;5032763;28;20116;-73
2022/12/08 03:10:54;;;;;;;19.05;11.32;;;5.80;99.90;;;;;;5033973;28;20044;-74
2022/12/08 03:13:28;;;;;;;13.70;10.93;;;5.80;99.90;;;;;;5037361;28;20108;-73
2022/12/08 03:15:55;;;;;;;13.02;11.10;;;5.80;99.90;;;;;;5038111;28;20041;-73
2022/12/08 03:18:26;;;;;;;14.10;9.88;;;5.80;99.90;;;;;;5033116;28;20039;-73
2022/12/08 03:20:52;;;;;;;11.73;9.73;;;5.90;99.90;;;;;;5033323;28;20036;-73
2022/12/08 03:23:19;;;;;;;12.13;9.30;;;5.90;99.90;;;;;;5031801;28;20029;-73
2022/12/08 03:25:59;;;;;;;12.70;9.40;;;5.90;99.90;;;;;;5032234;28;20022;-73
2022/12/08 03:28:25;;;;;;;9.75;8.75;;;6.00;99.90;;;;;;5033044;28;20025;-73
2022/12/08 03:30:55;;;;;;;14.02;8.80;;;5.90;99.90;;;;;;5032955;28;20056;-73
2022/12/08 03:33:32;;;;;;;10.90;8.45;;;6.00;99.90;;;;;;5032570;28;20508;-73
2022/12/08 03:35:59;;;;;;;10.02;8.35;;;5.90;99.90;;;;;;5032929;28;20029;-73
2022/12/08 03:38:25;;;;;;;11.10;8.80;;;5.90;99.90;;;;;;5032519;28;20153;-74
2022/12/08 03:43:35;;;;;;;10.82;8.52;;;5.90;99.90;;;;;;5032070;28;20385;-74
2022/12/08 03:46:01;;;;;;;11.13;7.80;;;5.90;99.90;;;;;;5032987;28;20029;-74
2022/12/08 03:48:26;;;;;;;9.77;7.38;;;5.80;99.90;;;;;;5014921;28;20492;-74
2022/12/08 03:50:52;;;;;;;14.40;7.28;;;5.80;99.90;;;;;;5032777;28;20037;-74
2022/12/08 03:53:17;;;;;;;8.55;6.75;;;5.80;99.90;;;;;;5036170;28;20448;-74
2022/12/08 03:55:43;;;;;;;11.77;6.57;;;5.80;99.90;;;;;;5036682;28;20405;-74
2022/12/08 03:58:09;;;;;;;7.38;5.75;;;5.80;99.90;;;;;;5036637;28;20106;-74
2022/12/08 04:00:34;;;;;;;7.35;5.47;;;5.80;99.90;;;;;;5031294;28;20061;-74
2022/12/08 04:03:00;;;;;;;6.38;4.78;;;5.80;99.90;;;;;;5016942;28;20049;-74
2022/12/08 04:05:25;;;;;;;5.32;4.25;;;5.80;99.90;;;;;;5016802;28;20030;-74
2022/12/08 04:07:55;;;;;;;4.70;3.72;;;5.80;99.90;;;;;;5015171;28;20030;-74
2022/12/08 04:10:21;;;;;;;6.45;4.40;;;5.80;99.90;;;;;;5015172;28;20041;-74
2022/12/08 04:12:46;;;;;;;7.03;3.40;;;5.80;99.90;;;;;;5015603;28;20034;-74
2022/12/08 04:15:12;;;;;;;5.05;2.80;;;5.80;99.90;;;;;;5015523;28;20105;-74
2022/12/08 04:17:37;;;;;;;4.88;2.92;;;5.70;99.90;;;;;;5015657;28;20327;-74
2022/12/08 04:20:04;;;;;;;3.53;2.13;;;5.70;99.90;;;;;;4998966;28;20092;-74
2022/12/08 04:22:29;;;;;;;3.65;2.00;;;5.70;99.90;;;;;;5014696;28;20103;-74
2022/12/08 04:24:55;;;;;;;4.28;2.00;;;5.60;99.90;;;;;;5016368;28;20455;-74
2022/12/08 04:27:20;;;;;;;3.78;2.20;;;5.60;99.90;;;;;;5015030;28;20037;-74
2022/12/08 04:29:46;;;;;;;3.55;1.80;;;5.60;99.90;;;;;;5015183;28;20038;-74
2022/12/08 04:32:12;;;;;;;4.45;1.88;;;5.50;99.90;;;;;;5015993;28;20041;-73
2022/12/08 04:34:43;;;;;;;3.00;1.50;;;5.50;99.90;;;;;;5015250;28;20383;-76
2022/12/08 04:37:09;;;;;;;1.98;1.38;;;5.50;99.90;;;;;;5015885;28;20058;-75
2022/12/08 04:39:35;;;;;;;2.50;1.23;;;5.50;99.90;;;;;;4998469;28;20493;-76
2022/12/08 04:42:00;;;;;;;2.03;1.10;;;5.50;99.90;;;;;;5014812;28;20034;-75
2022/12/08 04:44:26;;;;;;;2.17;0.80;;;5.40;99.90;;;;;;5014809;28;20390;-75
2022/12/08 04:46:51;;;;;;;3.08;0.88;;;5.40;99.90;;;;;;5015263;28;20026;-75
2022/12/08 04:49:17;;;;;;;2.70;0.90;;;5.40;99.90;;;;;;5016229;28;20488;-75
2022/12/08 04:51:43;;;;;;;1.25;0.90;;;5.40;99.90;;;;;;5015292;28;20041;-75
2022/12/08 04:54:08;;;;;;;3.38;1.65;;;5.40;99.90;;;;;;5017133;28;20489;-75
2022/12/08 04:56:34;;;;;;;5.15;2.08;;;5.40;99.90;;;;;;5021175;28;20041;-75
2022/12/08 04:59:00;;;;;;;3.63;2.17;;;5.50;99.90;;;;;;5015559;28;20050;-75
2022/12/08 05:01:25;;;;;;;3.83;3.13;;;5.50;99.90;;;;;;4998175;28;20041;-74
2022/12/08 05:03:51;;;;;;;3.78;2.88;;;5.40;99.90;;;;;;4981496;28;20474;-74
2022/12/08 05:06:17;;;;;;;4.22;3.13;;;5.40;99.90;;;;;;5014490;28;20057;-75
2022/12/08 05:08:43;;;;;;;3.55;3.05;;;5.40;99.90;;;;;;4998053;28;20100;-74
2022/12/08 05:11:10;;;;;;;4.47;3.53;;;5.50;99.90;;;;;;5015506;28;20060;-75
2022/12/08 05:13:36;;;;;;;4.80;3.92;;;5.50;99.90;;;;;;5015660;28;20030;-74
2022/12/08 05:16:13;;;;;;;6.43;4.75;;;5.50;99.90;;;;;;4997611;28;20030;-72
2022/12/08 05:18:40;;;;;;;4.25;3.83;;;5.50;99.90;;;;;;4998180;28;20374;-72
2022/12/08 05:21:07;;;;;;;6.40;4.40;;;5.50;99.90;;;;;;5015298;28;20041;-72
2022/12/08 05:23:33;;;;;;;4.50;4.10;;;5.50;99.90;;;;;;5015213;28;20026;-71
2022/12/08 05:25:59;;;;;;;5.10;4.60;;;5.60;99.90;;;;;;4998026;28;20267;-71
2022/12/08 05:28:25;;;;;;;5.03;4.53;;;5.60;99.90;;;;;;4997414;28;20104;-72
2022/12/08 05:30:51;;;;;;;5.03;4.40;;;5.60;99.90;;;;;;5015096;28;20056;-71
2022/12/08 05:33:17;;;;;;;6.32;5.20;;;5.50;99.90;;;;;;4997521;28;20037;-71
2022/12/08 05:35:42;;;;;;;6.32;4.55;;;5.50;99.90;;;;;;4997885;28;20378;-72
2022/12/08 05:38:09;;;;;;;4.95;4.55;;;5.50;99.90;;;;;;5014635;28;20034;-71
2022/12/08 05:40:37;;;;;;;4.85;4.43;;;5.50;99.90;;;;;;5014681;28;20072;-72
2022/12/08 05:43:03;;;;;;;5.57;4.25;;;5.60;99.90;;;;;;4997492;28;20351;-72
2022/12/08 05:45:29;;;;;;;6.30;4.45;;;5.50;99.90;;;;;;5013841;28;20034;-72
2022/12/08 05:48:00;;;;;;;3.65;3.05;;;5.50;99.90;;;;;;4997182;28;20467;-72
2022/12/08 05:50:26;;;;;;;4.50;3.22;;;5.50;99.90;;;;;;5014517;28;20113;-71
2022/12/08 05:52:51;;;;;;;6.93;2.78;;;5.50;99.90;;;;;;4997417;28;20403;-72
2022/12/08 05:55:17;;;;;;;3.28;2.40;;;5.50;99.90;;;;;;4997079;28;20105;-72
2022/12/08 05:57:43;;;;;;;3.78;2.33;;;5.50;99.90;;;;;;4997108;28;20116;-72
2022/12/08 06:00:09;;;;;;;3.15;2.03;;;5.50;99.90;;;;;;5014962;28;20081;-71
2022/12/08 06:02:35;;;;;;;5.13;2.17;;;5.60;99.90;;;;;;5013319;28;20029;-72
2022/12/08 06:05:00;;;;;;;1.80;1.23;;;5.60;99.90;;;;;;5013402;28;20045;-71
2022/12/08 06:07:26;;;;;;;1.27;0.90;;;5.60;99.90;;;;;;5014358;28;20375;-72
2022/12/08 06:09:51;;;;;;;1.27;0.43;;;5.60;99.90;;;;;;5013325;28;20394;-72
2022/12/08 06:12:17;;;;;;;2.03;0.50;;;5.50;99.90;;;;;;5013270;28;20529;-72
2022/12/08 06:14:43;;;;;;;2.55;0.57;;;5.50;99.90;;;;;;5013874;28;20526;-73
2022/12/08 06:17:08;;;;;;;3.25;0.30;;;5.50;99.90;;;;;;5014498;28;20069;-72
2022/12/08 06:19:34;;;;;;;2.47;0.35;;;5.50;99.90;;;;;;5014530;28;20467;-73
2022/12/08 06:21:59;;;;;;;1.45;0.25;;;5.60;99.90;;;;;;5014067;28;20080;-73
2022/12/08 06:24:25;;;;;;;2.25;0.32;;;5.60;99.90;;;;;;5012732;28;20159;-73
2022/12/08 06:26:51;;;;;;;1.85;0.35;;;5.70;99.90;;;;;;5013134;28;20450;-73
2022/12/08 06:29:16;;;;;;;1.52;0.40;;;5.70;99.90;;;;;;5015049;28;20529;-73
2022/12/08 06:31:42;;;;;;;3.75;0.30;;;5.70;99.90;;;;;;5015549;28;20049;-73
2022/12/08 06:34:07;;;;;;;1.73;0.20;;;5.60;99.90;;;;;;5020469;28;20105;-74
2022/12/08 06:36:33;;;;;;;5.00;0.95;;;5.60;99.90;;;;;;5016667;28;20030;-73
2022/12/08 06:38:59;;;;;;;3.70;0.28;;;5.50;99.90;;;;;;5015133;28;20037;-73
2022/12/08 06:41:25;;;;;;;3.53;0.20;;;5.40;99.90;;;;;;5014482;28;20104;-74
2022/12/08 06:43:50;;;;;;;3.20;0.20;;;5.40;99.90;;;;;;5014324;28;20478;-74
2022/12/08 06:46:18;;;;;;;1.15;0.25;;;5.40;99.90;;;;;;5013239;28;20454;-71
2022/12/08 06:48:44;;;;;;;2.13;0.20;;;5.40;99.90;;;;;;5013389;28;20030;-75
2022/12/08 06:51:14;;;;;;;2.15;0.20;;;5.40;99.90;;;;;;5013911;28;20180;-75
2022/12/08 06:53:41;;;;;;;0.38;0.10;;;5.40;99.90;;;;;;5013621;28;20022;-71
2022/12/08 06:56:07;;;;;;;1.25;0.20;;;5.50;99.90;;;;;;5013522;28;20052;-71
2022/12/08 06:58:33;;;;;;;1.90;0.20;;;5.50;99.90;;;;;;5012094;28;20029;-71
2022/12/08 07:01:05;;;;;;;1.05;0.20;;;5.60;99.90;;;;;;5011778;28;20391;-72
2022/12/08 07:03:30;;;;;;;1.67;0.65;;;5.60;99.90;;;;;;5012772;28;20343;-72
2022/12/08 07:05:56;;;;;;;0.98;0.25;;;5.80;99.90;;;;;;5013075;28;20040;-72
2022/12/08 07:08:22;;;;;;;1.58;0.30;;;5.80;99.90;;;;;;5012827;28;20443;-72
2022/12/08 07:10:48;;;;;;;1.58;0.28;;;5.90;99.90;;;;;;4995634;28;20034;-73
2022/12/08 07:13:13;;;;;;;1.73;0.40;;;5.90;99.90;;;;;;5012199;28;20061;-72
2022/12/08 07:15:39;;;;;;;1.95;0.40;;;5.90;99.90;;;;;;4995555;28;20033;-72
2022/12/08 07:18:04;;;;;;;1.20;0.47;;;6.00;99.90;;;;;;5011726;28;20104;-72
2022/12/08 07:20:30;;;;;;;1.33;0.50;;;6.00;99.90;;;;;;4995524;28;20034;-73
2022/12/08 07:22:56;;;;;;;2.10;0.63;;;6.00;99.90;;;;;;5013337;28;20466;-72
2022/12/08 07:25:21;;;;;;;1.65;0.60;;;5.90;99.90;;;;;;5011550;28;20477;-71
2022/12/08 07:27:49;;;;;;;2.28;0.80;;;5.90;99.90;;;;;;5017098;28;20038;-72
2022/12/08 07:30:15;;;;;;;2.20;0.73;;;5.90;99.90;;;;;;5018566;28;20505;-71
2022/12/08 07:32:40;;;;;;;1.75;0.90;;;6.00;99.90;;;;;;5019699;28;20030;-73
2022/12/08 07:35:07;;;;;;;1.83;1.10;;;6.00;99.90;;;;;;5002041;28;20037;-73
2022/12/08 07:37:34;;;;;;;1.38;0.70;;;6.10;99.90;;;;;;5002198;28;20113;-72
2022/12/08 07:39:59;;;;;;;1.33;0.82;;;6.10;99.90;;;;;;5019662;28;20052;-72
2022/12/08 07:42:25;;;;;;;2.10;0.80;;;6.10;99.90;;;;;;5002285;28;20455;-72
2022/12/08 07:44:51;;;;;;;2.78;1.45;;;6.20;99.90;;;;;;5019903;28;20107;-73
2022/12/08 07:47:16;;;;;;;1.63;0.60;;;6.20;99.90;;;;;;5019210;28;20422;-73
2022/12/08 07:49:42;;;;;;;0.80;0.60;;;6.20;99.90;;;;;;5018652;28;20447;-75
2022/12/08 07:52:08;;;;;;;2.67;0.55;;;6.20;99.90;;;;;;5018446;28;20065;-76
2022/12/08 07:54:33;;;;;;;1.92;0.60;;;6.20;99.90;;;;;;5018669;28;20026;-75
2022/12/08 07:56:59;;;;;;;2.25;0.60;;;6.30;99.90;;;;;;5002381;28;20358;-75
2022/12/08 07:59:25;;;;;;;2.22;0.63;;;6.20;99.90;;;;;;5001719;28;20558;-74
2022/12/08 08:01:51;;;;;;;1.20;0.70;;;6.30;99.90;;;;;;5017864;28;20525;-73
2022/12/08 08:04:17;;;;;;;1.35;0.80;;;6.30;99.90;;;;;;5018257;28;20109;-74
2022/12/08 08:06:42;;;;;;;2.13;0.60;;;6.30;99.90;;;;;;5018524;28;20034;-74
2022/12/08 08:09:09;;;;;;;1.17;0.60;;;6.30;99.90;;;;;;5002478;28;20120;-74
2022/12/08 08:11:35;;;;;;;0.70;0.40;;;6.20;99.90;;;;;;5020224;28;20034;-74
2022/12/08 08:14:01;;;;;;;1.33;0.57;;;6.20;99.90;;;;;;5019590;28;20041;-74
2022/12/08 08:16:27;;;;;;;2.38;0.70;;;6.30;99.90;;;;;;5018396;28;20119;-74
2022/12/08 08:18:52;;;;;;;2.22;0.80;;;6.30;99.90;;;;;;5018601;28;20030;-74
2022/12/08 08:21:19;;;;;;;4.90;1.35;;;6.40;99.90;;;;;;5018043;28;20085;-77
2022/12/08 08:23:45;;;;;;;2.58;1.00;;;6.40;99.90;;;;;;5019498;28;20037;-76
2022/12/08 08:26:11;;;;;;;2.42;0.93;;;6.40;99.90;;;;;;5001896;28;20058;-76
2022/12/08 08:28:37;;;;;;;3.05;1.00;;;6.40;99.90;;;;;;5018486;28;20053;-76
2022/12/08 08:31:03;;;;;;;2.28;1.00;;;6.40;99.90;;;;;;5002287;28;20038;-77
2022/12/08 08:33:29;;;;;;;1.98;0.80;;;6.40;99.90;;;;;;5019249;28;20104;-77
2022/12/08 08:35:55;;;;;;;2.13;0.77;;;6.40;99.90;;;;;;5002113;28;20147;-75
2022/12/08 08:38:21;;;;;;;1.83;0.88;;;6.40;99.90;;;;;;5015274;28;20378;-78
2022/12/08 08:40:47;;;;;;;3.17;0.82;;;6.50;99.90;;;;;;4998337;28;20085;-78
2022/12/08 08:43:30;;;;;;;2.55;0.80;;;6.50;99.90;;;;;;5014821;28;20029;-77
2022/12/08 08:46:00;;;;;;;1.55;0.80;;;6.50;99.90;;;;;;5014257;28;20045;-77
2022/12/08 08:48:27;;;;;;;1.23;0.73;;;6.60;99.90;;;;;;5014756;28;20422;-76
2022/12/08 08:50:54;;;;;;;2.58;1.52;;;6.60;99.90;;;;;;5014945;28;20038;-76
2022/12/08 08:53:20;;;;;;;1.95;0.90;;;6.60;99.90;;;;;;4998706;28;20427;-74
2022/12/08 08:55:46;;;;;;;2.10;0.93;;;6.50;99.90;;;;;;4998199;28;20026;-76
2022/12/08 08:58:12;;;;;;;1.65;0.50;;;6.50;99.90;;;;;;5014174;28;20439;-76
2022/12/08 09:00:38;;;;;;;1.35;0.40;;;6.40;99.90;;;;;;5021820;28;20050;-75
2022/12/08 09:03:03;;;;;;;0.70;0.35;;;6.40;99.90;;;;;;5035839;28;20045;-75
2022/12/08 09:05:29;;;;;;;1.02;0.38;;;6.40;99.90;;;;;;5035266;28;20095;-75
2022/12/08 09:07:55;;;;;;;1.45;0.43;;;6.30;99.90;;;;;;5035546;28;20477;-76
2022/12/08 09:10:21;;;;;;;2.40;0.60;;;6.40;99.90;;;;;;5017980;28;20030;-76
2022/12/08 09:12:46;;;;;;;1.48;0.50;;;6.40;99.90;;;;;;5033927;28;20040;-76
2022/12/08 09:15:12;;;;;;;2.15;0.55;;;6.30;99.90;;;;;;5017911;28;20034;-78
2022/12/08 09:17:38;;;;;;;2.47;0.70;;;6.30;99.90;;;;;;5033650;28;20056;-76
2022/12/08 09:20:05;;;;;;;4.03;0.88;;;6.30;99.90;;;;;;5000706;28;20042;-78
2022/12/08 09:22:31;;;;;;;3.88;1.08;;;6.20;99.90;;;;;;5033768;28;20043;-77
2022/12/08 09:24:57;;;;;;;1.77;1.05;;;6.10;99.90;;;;;;5033768;28;20120;-77
2022/12/08 09:27:22;;;;;;;3.47;1.05;;;6.10;99.90;;;;;;5017230;28;20033;-77
2022/12/08 09:29:48;;;;;;;2.58;1.63;;;6.10;99.90;;;;;;5017107;28;20072;-76
2022/12/08 09:32:13;;;;;;;2.38;1.42;;;6.10;99.90;;;;;;5034078;28;20074;-78
2022/12/08 09:34:39;;;;;;;3.28;1.63;;;6.20;99.90;;;;;;5033579;28;20083;-78
2022/12/08 09:37:05;;;;;;;3.10;1.40;;;6.30;99.90;;;;;;5016989;28;20497;-77
2022/12/08 09:39:30;;;;;;;1.70;1.50;;;6.30;99.90;;;;;;5016998;28;20029;-78
2022/12/08 09:42:02;;;;;;;3.17;2.08;;;6.30;99.90;;;;;;5016880;28;20128;-74
2022/12/08 09:45:03;;;;;;;3.00;2.10;;;6.40;99.90;;;;;;5034704;28;20033;-73
2022/12/08 09:47:39;;;;;;;3.47;2.03;;;6.40;99.90;;;;;;5017333;28;20521;-75
2022/12/08 09:50:21;;;;;;;5.97;1.95;;;6.30;99.90;;;;;;5017801;28;20144;-74
2022/12/08 09:53:09;;;;;;;2.72;1.73;;;6.30;99.90;;;;;;5035113;28;20025;-73
2022/12/08 09:55:41;;;;;;;2.38;1.85;;;6.40;99.90;;;;;;5034794;28;20462;-74
2022/12/08 09:58:27;;;;;;;3.63;2.05;;;6.30;99.90;;;;;;5034416;28;20537;-73
2022/12/08 10:00:53;;;;;;;3.03;2.33;;;6.20;99.90;;;;;;5030086;28;20153;-74
2022/12/08 10:03:22;;;;;;;4.30;2.40;;;6.30;99.90;;;;;;5012675;28;20131;-73
2022/12/08 10:06:29;;;;;;;2.97;1.95;;;6.30;99.90;;;;;;5013943;28;20079;-74
2022/12/08 10:09:22;;;;;;;3.83;1.95;;;6.30;99.90;;;;;;5029830;28;20071;-74
2022/12/08 10:12:10;;;;;;;6.40;2.20;;;6.20;99.90;;;;;;5014056;28;20463;-73
2022/12/08 10:14:46;;;;;;;4.50;2.13;;;6.20;99.90;;;;;;5029606;28;20026;-73
2022/12/08 10:17:36;;;;;;;4.07;2.10;;;6.30;99.90;;;;;;5013312;28;20346;-72
2022/12/08 10:20:16;;;;;;;4.70;1.70;;;6.30;99.90;;;;;;5014171;28;20049;-73
2022/12/08 10:22:44;;;;;;;2.60;1.52;;;6.40;99.90;;;;;;5014492;28;20076;-72
2022/12/08 10:25:27;;;;;;;2.03;1.45;;;6.40;99.90;;;;;;5014202;28;20026;-72
2022/12/08 10:27:53;;;;;;;3.60;1.63;;;6.40;99.90;;;;;;5014296;28;20030;-72
2022/12/08 10:30:21;;;;;;;1.63;1.38;;;6.40;99.90;;;;;;5014331;28;20042;-73
2022/12/08 10:32:52;;;;;;;4.30;1.85;;;6.40;99.90;;;;;;5012857;28;20022;-74
2022/12/08 10:35:20;;;;;;;4.03;2.20;;;6.50;99.90;;;;;;5014265;28;20022;-74
2022/12/08 10:37:58;;;;;;;3.60;1.58;;;6.60;99.90;;;;;;5029099;28;20466;-74
2022/12/08 10:40:27;;;;;;;2.28;1.85;;;6.60;99.90;;;;;;5029371;28;20394;-74
2022/12/08 10:42:56;;;;;;;2.20;1.60;;;6.60;99.90;;;;;;5013854;28;20026;-73
2022/12/08 10:45:28;;;;;;;2.33;1.40;;;6.60;99.90;;;;;;5028902;28;20064;-74
2022/12/08 10:48:01;;;;;;;1.23;0.68;;;6.60;99.90;;;;;;5029170;28;20406;-74
2022/12/08 10:50:33;;;;;;;0.80;0.60;;;6.50;99.90;;;;;;5029340;28;20038;-74
2022/12/08 10:53:07;;;;;;;2.03;0.60;;;6.50;99.90;;;;;;5028774;28;20041;-74
2022/12/08 10:55:50;;;;;;;1.50;0.40;;;6.50;99.90;;;;;;5029393;28;20057;-74
2022/12/08 10:58:29;;;;;;;1.38;0.40;;;6.40;99.90;;;;;;5013952;28;20034;-74
2022/12/08 11:01:11;;;;;;;1.48;0.40;;;6.40;99.90;;;;;;5028244;28;20057;-74
2022/12/08 11:04:06;;;;;;;0.90;0.38;;;6.40;99.90;;;;;;5013907;28;20033;-74
2022/12/08 11:06:37;;;;;;;1.45;0.28;;;6.50;99.90;;;;;;5013579;28;20037;-73
2022/12/08 11:09:29;;;;;;;1.20;0.30;;;6.50;99.90;;;;;;5013511;28;20109;-74
2022/12/08 11:11:59;;;;;;;2.95;0.40;;;6.50;99.90;;;;;;5013736;28;20382;-73
2022/12/08 11:14:28;;;;;;;2.17;0.30;;;6.50;99.90;;;;;;5013371;28;20022;-74
2022/12/08 11:17:13;;;;;;;0.85;0.40;;;6.50;99.90;;;;;;5013983;28;20058;-74
2022/12/08 11:19:41;;;;;;;1.02;0.68;;;6.50;99.90;;;;;;5012392;28;20033;-76
2022/12/08 11:22:32;;;;;;;1.92;0.80;;;6.50;99.90;;;;;;5012660;28;20125;-74
2022/12/08 11:24:59;;;;;;;1.80;1.10;;;6.60;99.90;;;;;;5012497;28;20042;-74
2022/12/08 11:27:25;;;;;;;2.65;1.20;;;6.50;99.90;;;;;;5016960;28;20034;-73
2022/12/08 11:29:51;;;;;;;2.92;1.10;;;6.60;99.90;;;;;;5000417;28;20076;-74
2022/12/08 11:32:16;;;;;;;4.45;1.10;;;6.60;99.90;;;;;;5016557;28;20033;-73
2022/12/08 11:34:48;;;;;;;3.40;1.17;;;6.60;99.90;;;;;;5013288;28;20424;-74
2022/12/08 11:37:36;;;;;;;2.03;1.10;;;6.50;99.90;;;;;;5013216;28;20030;-73
2022/12/08 11:40:14;;;;;;;2.60;1.50;;;6.70;99.90;;;;;;5012077;28;20038;-74
2022/12/08 11:43:21;;;;;;;3.25;1.33;;;6.70;99.90;;;;;;5013011;28;20489;-76
2022/12/08 11:45:53;;;;;;;2.83;1.40;;;6.60;99.90;;;;;;5012521;28;20030;-74
2022/12/08 11:48:29;;;;;;;2.17;1.23;;;6.70;99.90;;;;;;5012460;28;20510;-74
2022/12/08 11:51:31;;;;;;;4.47;1.20;;;6.70;99.90;;;;;;5012564;28;20045;-73
2022/12/08 11:54:27;;;;;;;2.00;1.30;;;6.70;99.90;;;;;;5013046;28;20053;-74
2022/12/08 11:56:56;;;;;;;3.20;1.10;;;6.70;99.90;;;;;;5012808;28;20080;-75
2022/12/08 11:59:44;;;;;;;1.60;0.95;;;6.70;99.90;;;;;;5011322;28;20025;-76
2022/12/08 12:02:20;;;;;;;3.60;1.08;;;6.70;99.90;;;;;;5014424;28;20151;-76
2022/12/08 12:05:04;;;;;;;2.50;1.30;;;6.70;99.90;;;;;;5032644;28;20038;-77
2022/12/08 12:07:45;;;;;;;;;;;6.70;99.90;;;;;;5032894;28;20474;-76
2022/12/08 12:10:42;;;;;;;2.38;1.02;;;6.70;99.90;;;;;;5032484;28;20491;-77
2022/12/08 12:13:14;;;;;;;1.92;0.73;;;6.70;99.90;;;;;;4981500;28;20065;-73
2022/12/08 12:16:20;;;;;;;1.52;0.70;;;6.60;99.90;;;;;;5035040;28;20033;-74
2022/12/08 12:18:58;;;;;;;3.58;0.55;;;6.50;99.90;;;;;;5018680;28;20382;-73
2022/12/08 12:21:31;;;;;;;2.40;0.60;;;6.50;99.90;;;;;;5036202;28;20072;-73
2022/12/08 12:24:13;;;;;;;1.77;1.00;;;6.50;99.90;;;;;;5036453;28;20086;-73
2022/12/08 12:27:14;;;;;;;1.73;0.70;;;6.40;99.90;;;;;;5036308;28;20086;-73
2022/12/08 12:30:19;;;;;;;1.80;1.05;;;6.30;99.90;;;;;;4995722;28;20048;-74
2022/12/08 12:32:51;;;;;;;1.63;0.60;;;6.30;99.90;;;;;;4986090;28;20124;-73
2022/12/08 12:35:41;;;;;;;0.85;0.32;;;6.30;99.90;;;;;;5036257;28;20030;-74
2022/12/08 12:41:30;;;;;;;2.85;0.40;;;6.40;99.90;;;;;;5036065;28;20036;-74
2022/12/08 12:44:16;;;;;;;1.40;0.20;;;6.40;99.90;;;;;;5035825;28;20470;-73
2022/12/08 12:46:51;;;;;;;1.50;0.30;;;6.40;99.90;;;;;;5025115;28;20135;-74
2022/12/08 12:49:39;;;;;;;2.13;0.35;;;6.30;99.90;;;;;;5035820;28;20028;-73
2022/12/08 12:52:17;;;;;;;1.88;0.30;;;6.30;99.90;;;;;;5034276;28;20026;-74
2022/12/08 12:54:49;;;;;;;4.22;0.47;;;6.30;99.90;;;;;;5034235;28;20033;-75
2022/12/08 12:57:22;;;;;;;2.35;0.30;;;6.40;99.90;;;;;;5034167;28;20025;-74
2022/12/08 12:59:54;;;;;;;2.35;0.30;;;6.30;99.90;;;;;;5034360;28;20036;-74
2022/12/08 13:02:19;;;;;;;1.42;0.28;;;6.40;99.90;;;;;;5035843;28;20164;-73
2022/12/08 13:05:16;;;;;;;1.38;0.20;;;6.40;99.90;;;;;;5035666;28;20097;-73
2022/12/08 13:08:02;;;;;;;0.57;0.20;;;6.40;99.90;;;;;;5035744;28;20080;-74
2022/12/08 13:10:36;;;;;;;1.60;0.20;;;6.40;99.90;;;;;;5035447;28;20104;-74
2022/12/08 13:13:11;;;;;;;1.08;0.20;;;6.40;99.90;;;;;;5034911;28;20029;-73
2022/12/08 13:15:47;;;;;;;1.08;0.15;;;6.50;99.90;;;;;;5033718;28;20029;-76
2022/12/08 13:18:20;;;;;;;1.88;0.10;;;6.50;99.90;;;;;;5034222;28;20025;-74
2022/12/08 13:20:50;;;;;;;1.65;0.20;;;6.50;99.90;;;;;;5017257;28;20086;-73
2022/12/08 13:23:45;;;;;;;1.33;0.10;;;6.50;99.90;;;;;;5016996;28;20478;-73
2022/12/08 13:26:21;;;;;;;2.33;0.32;;;6.50;99.90;;;;;;5034352;28;20035;-72